createdAt,value
2024-02-23T00:01:29.465Z,11.90
2024-02-23T00:06:21.627Z,12.00
2024-02-23T00:11:13.940Z,12.30
2024-02-23T00:16:06.476Z,12.50
2024-02-23T00:20:58.562Z,12.50
2024-02-23T00:25:50.666Z,12.60
2024-02-23T00:30:42.608Z,12.60
2024-02-23T00:35:34.893Z,12.70
2024-02-23T00:40:26.879Z,12.70
2024-02-23T00:45:19.098Z,12.90
2024-02-23T00:50:11.955Z,12.80
2024-02-23T00:55:05.687Z,12.60
2024-02-23T00:59:58.520Z,12.40
2024-02-23T01:04:50.633Z,12.40
2024-02-23T01:09:42.770Z,12.30
2024-02-23T01:14:34.852Z,12.40
2024-02-23T01:19:27.074Z,12.60
2024-02-23T01:24:19.171Z,12.70
2024-02-23T01:29:11.335Z,12.70
2024-02-23T01:34:03.479Z,12.70
2024-02-23T01:38:56.099Z,12.50
2024-02-23T01:43:48.373Z,12.70
2024-02-23T01:48:40.573Z,13.00
2024-02-23T01:53:35.619Z,13.10
2024-02-23T01:58:29.635Z,13.10
2024-02-23T02:03:22.429Z,13.00
2024-02-23T02:08:14.973Z,13.00
2024-02-23T02:13:07.492Z,13.00
2024-02-23T02:18:00.262Z,12.90
2024-02-23T02:22:53.417Z,12.80
2024-02-23T02:27:46.924Z,12.70
2024-02-23T02:32:40.698Z,12.60
2024-02-23T02:37:33.955Z,12.60
2024-02-23T02:42:27.469Z,12.40
2024-02-23T02:47:20.298Z,12.50
2024-02-23T02:59:00.570Z,12.30
2024-02-23T03:03:53.425Z,12.10
2024-02-23T03:08:46.912Z,12.20
2024-02-23T03:13:39.537Z,12.20
2024-02-23T03:18:32.525Z,12.10
2024-02-23T03:23:25.462Z,12.00
2024-02-23T03:28:18.244Z,12.10
2024-02-23T03:33:11.197Z,12.00
2024-02-23T03:38:03.987Z,11.80
2024-02-23T03:42:56.786Z,11.70
2024-02-23T03:47:49.823Z,11.50
2024-02-23T03:52:42.695Z,11.40
2024-02-23T03:57:35.244Z,11.40
2024-02-23T04:02:27.462Z,11.40
2024-02-23T04:07:19.615Z,11.40
2024-02-23T04:12:11.798Z,11.20
2024-02-23T04:17:04.837Z,11.00
2024-02-23T04:21:57.083Z,11.00
2024-02-23T04:26:49.127Z,10.90
2024-02-23T04:31:41.121Z,10.70
2024-02-23T04:36:33.186Z,10.70
2024-02-23T04:41:25.834Z,10.60
2024-02-23T04:46:18.088Z,10.60
2024-02-23T04:51:12.958Z,10.40
2024-02-23T04:56:05.647Z,10.20
2024-02-23T05:00:58.207Z,10.00
2024-02-23T05:05:55.527Z,9.80
2024-02-23T05:10:49.057Z,9.90
2024-02-23T05:15:42.369Z,10.00
2024-02-23T05:20:36.324Z,10.10
2024-02-23T05:25:29.413Z,10.30
2024-02-23T05:30:24.915Z,10.30
2024-02-23T05:35:18.672Z,10.30
2024-02-23T05:40:13.070Z,10.10
2024-02-23T05:45:10.543Z,10.10
2024-02-23T05:50:05.502Z,10.00
2024-02-23T05:55:01.323Z,10.00
2024-02-23T05:59:53.884Z,9.90
2024-02-23T06:04:46.628Z,9.90
2024-02-23T06:10:29.089Z,9.80
2024-02-23T06:15:21.939Z,9.80
2024-02-23T06:20:15.208Z,9.70
2024-02-23T06:25:08.104Z,9.80
2024-02-23T06:30:01.166Z,9.70
2024-02-23T06:34:54.544Z,9.60
2024-02-23T06:39:52.731Z,9.60
2024-02-23T06:44:45.352Z,9.60
2024-02-23T06:49:38.069Z,9.50
2024-02-23T06:54:31.267Z,9.50
2024-02-23T06:59:25.630Z,9.50
2024-02-23T07:04:18.621Z,9.60
2024-02-23T07:09:12.692Z,9.70
2024-02-23T07:14:05.018Z,9.80
2024-02-23T07:18:58.108Z,10.00
2024-02-23T07:23:50.303Z,10.20
2024-02-23T07:28:42.321Z,10.30
2024-02-23T07:33:34.579Z,10.30
2024-02-23T07:38:26.917Z,10.20
2024-02-23T07:43:19.124Z,10.30
2024-02-23T07:48:11.191Z,10.40
2024-02-23T07:53:05.727Z,10.50
2024-02-23T07:58:03.219Z,10.60
2024-02-23T08:02:58.270Z,10.60
2024-02-23T08:07:51.295Z,10.60
2024-02-23T08:12:44.196Z,10.60
2024-02-23T08:17:37.412Z,10.60
2024-02-23T08:22:30.621Z,10.70
2024-02-23T08:27:23.284Z,10.70
2024-02-23T08:32:16.248Z,10.70
2024-02-23T08:37:08.999Z,10.60
2024-02-23T08:42:01.707Z,10.60
2024-02-23T08:46:54.470Z,10.50
2024-02-23T08:58:35.866Z,10.60
2024-02-23T09:03:29.791Z,10.70
2024-02-23T09:08:22.796Z,11.20
2024-02-23T09:13:16.767Z,12.10
2024-02-23T09:18:09.479Z,12.90
2024-02-23T09:23:02.517Z,13.70
2024-02-23T09:27:58.904Z,14.50
2024-02-23T09:32:51.697Z,15.50
2024-02-23T09:37:44.440Z,16.50
2024-02-23T09:42:39.589Z,15.90
2024-02-23T09:47:33.320Z,15.60
2024-02-23T09:52:25.929Z,15.60
2024-02-23T09:57:19.911Z,15.30
2024-02-23T10:02:16.959Z,15.50
2024-02-23T10:07:09.996Z,15.50
2024-02-23T10:12:04.739Z,15.20
2024-02-23T10:16:57.787Z,14.70
2024-02-23T10:21:50.740Z,14.40
2024-02-23T10:26:43.674Z,14.30
2024-02-23T10:31:41.318Z,14.60
2024-02-23T10:36:34.252Z,14.60
2024-02-23T10:41:27.695Z,14.60
2024-02-23T10:46:21.236Z,14.30
2024-02-23T10:51:20.705Z,14.10
2024-02-23T10:56:14.101Z,13.60
2024-02-23T11:07:58.021Z,13.60
2024-02-23T11:13:00.164Z,13.50
2024-02-23T11:17:53.125Z,13.50
2024-02-23T11:22:45.983Z,13.60
2024-02-23T11:27:42.469Z,13.80
2024-02-23T11:32:43.063Z,13.90
2024-02-23T11:38:03.898Z,14.50
2024-02-23T11:42:57.268Z,14.70
2024-02-23T11:47:50.336Z,14.70
2024-02-23T11:52:43.408Z,14.50
2024-02-23T11:57:46.307Z,14.10
2024-02-23T12:02:40.661Z,13.70
2024-02-23T12:07:34.186Z,13.50
2024-02-23T12:12:27.512Z,13.70
2024-02-23T12:17:19.693Z,14.00
2024-02-23T12:22:13.622Z,14.30
2024-02-23T12:27:07.217Z,14.50
2024-02-23T12:32:09.058Z,14.60
2024-02-23T12:37:03.144Z,14.60
2024-02-23T12:41:56.103Z,14.30
2024-02-23T12:46:48.183Z,14.40
2024-02-23T12:51:40.272Z,14.40
2024-02-23T12:56:32.339Z,14.40
2024-02-23T13:01:25.235Z,14.10
2024-02-23T13:06:18.128Z,13.60
2024-02-23T13:11:11.396Z,13.40
2024-02-23T13:16:04.321Z,13.00
2024-02-23T13:20:56.984Z,12.70
2024-02-23T13:25:50.524Z,12.90
2024-02-23T13:30:43.336Z,13.20
2024-02-23T13:35:36.330Z,13.30
2024-02-23T13:40:29.092Z,13.50
2024-02-23T13:45:25.569Z,13.40
2024-02-23T13:50:18.364Z,13.10
2024-02-23T13:55:11.063Z,12.90
2024-02-23T14:00:34.883Z,13.10
2024-02-23T14:05:27.997Z,13.10
2024-02-23T14:10:20.725Z,13.00
2024-02-23T14:15:14.041Z,12.90
2024-02-23T14:20:08.191Z,12.80
2024-02-23T14:25:01.010Z,12.70
2024-02-23T14:29:54.001Z,12.40
2024-02-23T14:34:47.272Z,12.30
2024-02-23T14:39:40.002Z,12.10
2024-02-23T14:44:32.872Z,12.10
2024-02-23T14:49:25.510Z,12.00
2024-02-23T14:54:18.376Z,12.00
2024-02-23T14:59:11.366Z,12.10
2024-02-23T15:04:03.734Z,12.00
2024-02-23T15:08:59.402Z,11.90
2024-02-23T15:13:52.750Z,11.70
2024-02-23T15:18:45.044Z,11.50
2024-02-23T15:23:37.912Z,11.30
2024-02-23T15:28:30.099Z,11.20
2024-02-23T15:33:25.154Z,11.20
2024-02-23T15:38:17.450Z,11.20
2024-02-23T15:43:09.534Z,11.10
2024-02-23T15:48:01.767Z,11.00
2024-02-23T15:52:54.040Z,10.90
2024-02-23T15:57:46.270Z,10.70
2024-02-23T16:02:38.694Z,10.70
2024-02-23T16:07:31.096Z,10.60
2024-02-23T16:12:23.193Z,10.40
2024-02-23T16:17:15.451Z,10.40
2024-02-23T16:22:07.783Z,10.20
2024-02-23T16:27:02.364Z,10.10
2024-02-23T16:31:55.332Z,10.00
2024-02-23T16:36:49.825Z,9.90
2024-02-23T16:41:42.760Z,9.90
2024-02-23T16:46:37.108Z,9.90
2024-02-23T16:51:32.981Z,9.80
2024-02-23T16:56:28.721Z,9.70
2024-02-23T17:01:21.896Z,9.60
2024-02-23T17:06:17.885Z,9.60
2024-02-23T17:11:11.429Z,9.50
2024-02-23T17:16:06.218Z,9.50
2024-02-23T17:21:01.458Z,9.40
2024-02-23T17:25:54.078Z,9.40
2024-02-23T17:30:46.683Z,9.30
2024-02-23T17:35:40.209Z,9.30
2024-02-23T17:40:33.535Z,9.30
2024-02-23T17:45:26.213Z,9.10
2024-02-23T17:50:19.127Z,9.00
2024-02-23T17:55:11.876Z,9.00
2024-02-23T18:00:05.370Z,9.00
2024-02-23T18:04:58.369Z,8.90
2024-02-23T18:09:52.291Z,9.00
2024-02-23T18:14:45.095Z,8.90
2024-02-23T18:19:38.801Z,8.80
2024-02-23T18:24:31.619Z,8.80
2024-02-23T18:29:24.449Z,8.70
2024-02-23T18:34:17.465Z,8.70
2024-02-23T18:45:26.391Z,8.50
2024-02-23T18:50:19.934Z,8.50
2024-02-23T18:55:13.730Z,8.40
2024-02-23T19:00:07.933Z,8.40
2024-02-23T19:05:00.941Z,8.30
2024-02-23T19:09:56.426Z,8.20
2024-02-23T19:14:49.094Z,8.10
2024-02-23T19:19:41.723Z,8.20
2024-02-23T19:24:34.575Z,8.10
2024-02-23T19:29:27.243Z,8.00
2024-02-23T19:34:19.963Z,8.00
2024-02-23T19:39:13.361Z,8.00
2024-02-23T19:44:06.606Z,8.00
2024-02-23T19:48:58.696Z,8.10
2024-02-23T19:53:50.864Z,8.10
2024-02-23T19:58:44.497Z,8.10
2024-02-23T20:03:36.674Z,8.20
2024-02-23T20:08:30.428Z,8.10
2024-02-23T20:13:22.543Z,8.10
2024-02-23T20:18:14.732Z,8.20
2024-02-23T20:29:57.889Z,8.30
2024-02-23T20:34:51.392Z,8.20
2024-02-23T20:39:44.108Z,8.10
2024-02-23T20:44:36.824Z,8.00
2024-02-23T20:49:32.349Z,7.90
2024-02-23T20:54:25.211Z,7.90
2024-02-23T20:59:17.877Z,7.70
2024-02-23T21:04:10.646Z,7.60
2024-02-23T21:09:03.701Z,7.40
2024-02-23T21:13:56.977Z,7.40
2024-02-23T21:18:49.819Z,7.40
2024-02-23T21:23:43.414Z,7.50
2024-02-23T21:28:35.676Z,7.50
2024-02-23T21:33:28.232Z,7.50
2024-02-23T21:38:20.456Z,7.50
2024-02-23T21:50:01.089Z,7.60
2024-02-23T21:54:54.074Z,7.60
2024-02-23T21:59:46.749Z,7.50
2024-02-23T22:04:41.097Z,7.50
2024-02-23T22:09:35.091Z,7.40
2024-02-23T22:14:27.828Z,7.40
2024-02-23T22:19:20.627Z,7.40
2024-02-23T22:24:13.377Z,7.40
2024-02-23T22:29:06.119Z,7.40
2024-02-23T22:33:59.040Z,7.30
2024-02-23T22:38:52.115Z,7.10
2024-02-23T22:43:44.516Z,7.10
2024-02-23T22:48:37.184Z,7.00
2024-02-23T22:53:32.046Z,7.00
2024-02-23T22:58:25.508Z,7.00
2024-02-23T23:03:18.653Z,7.00
2024-02-23T23:08:11.146Z,7.00
2024-02-23T23:13:03.955Z,7.00
2024-02-23T23:17:56.246Z,7.10
2024-02-23T23:22:48.507Z,7.00
2024-02-23T23:27:40.685Z,7.00
2024-02-23T23:32:33.356Z,7.00
2024-02-23T23:37:25.467Z,7.00
2024-02-23T23:42:17.663Z,7.00
2024-02-23T23:47:10.091Z,7.10
2024-02-23T23:52:04.902Z,7.10
2024-02-23T23:56:57.757Z,7.00
